TimeCDT,TemperatureF,Dew PointF,Humidity,Sea Level PressureIn,VisibilityMPH,Wind Direction,Wind SpeedMPH,Gust SpeedMPH,PrecipitationIn,Events,Conditions,WindDirDegrees,DateUTC
12:58 AM,55.6,54.1,95,30.16,10.0,North,10.4,16.1,N/A,,Overcast,350,2013-05-24 05:58:00
1:18 AM,55.4,51.8,88,30.16,10.0,NNE,16.1,23.0,N/A,,Overcast,20,2013-05-24 06:18:00
1:58 AM,54.9,50.9,86,30.18,10.0,North,10.4,-,0.01,,Overcast,10,2013-05-24 06:58:00
2:58 AM,55.0,50.5,85,30.19,10.0,North,5.8,-,N/A,,Overcast,350,2013-05-24 07:58:00
3:58 AM,54.1,50.9,89,30.21,10.0,NNW,9.2,-,N/A,,Overcast,340,2013-05-24 08:58:00
4:58 AM,52.0,49.8,92,30.23,10.0,Variable,6.9,-,N/A,,Overcast,0,2013-05-24 09:58:00
5:58 AM,50.4,50.0,99,30.25,10.0,North,8.1,-,N/A,,Overcast,350,2013-05-24 10:58:00
6:36 AM,50.0,50.0,100,30.26,10.0,North,8.1,-,N/A,,Scattered Clouds,360,2013-05-24 11:36:00
6:58 AM,51.3,49.6,94,30.27,10.0,North,8.1,-,N/A,,Clear,360,2013-05-24 11:58:00
7:58 AM,54.0,50.4,88,30.30,10.0,North,10.4,-,N/A,,Clear,360,2013-05-24 12:58:00
8:58 AM,56.5,50.2,79,30.33,10.0,North,9.2,-,N/A,,Partly Cloudy,360,2013-05-24 13:58:00
9:58 AM,59.2,50.0,72,30.34,10.0,Variable,4.6,-,N/A,,Scattered Clouds,0,2013-05-24 14:58:00
10:27 AM,59.0,50.0,72,30.34,10.0,Variable,3.5,-,N/A,,Mostly Cloudy,0,2013-05-24 15:27:00
10:29 AM,59.0,50.0,72,30.34,10.0,North,8.1,-,N/A,,Mostly Cloudy,10,2013-05-24 15:29:00
10:58 AM,59.5,49.8,70,30.35,10.0,North,5.8,-,N/A,,Partly Cloudy,350,2013-05-24 15:58:00
11:58 AM,61.7,47.7,60,30.35,10.0,North,8.1,-,N/A,,Scattered Clouds,10,2013-05-24 16:58:00
12:58 PM,64.0,48.6,57,30.34,10.0,NE,10.4,-,N/A,,Clear,40,2013-05-24 17:58:00
1:58 PM,65.3,48.0,54,30.33,10.0,Variable,3.5,-,N/A,,Clear,0,2013-05-24 18:58:00
2:58 PM,67.1,48.0,50,30.32,10.0,North,6.9,-,N/A,,Clear,10,2013-05-24 19:58:00
3:58 PM,68.4,46.4,45,30.30,10.0,NNE,10.4,-,N/A,,Clear,30,2013-05-24 20:58:00
4:58 PM,68.9,46.6,45,30.30,10.0,NNE,8.1,-,N/A,,Clear,20,2013-05-24 21:58:00
5:54 PM,68.0,44.6,43,30.28,10.0,North,8.1,-,N/A,,Light Drizzle,10,2013-05-24 22:54:00
5:55 PM,68.0,44.6,43,30.28,10.0,NNE,6.9,-,N/A,,Clear,20,2013-05-24 22:55:00
5:58 PM,68.4,45.1,43,30.28,10.0,North,8.1,-,0.00,,Clear,10,2013-05-24 22:58:00
5:59 PM,68.0,46.4,46,30.28,10.0,North,8.1,-,N/A,,Light Drizzle,360,2013-05-24 22:59:00
6:04 PM,68.0,44.6,43,30.28,10.0,NNW,5.8,-,N/A,,Clear,340,2013-05-24 23:04:00
6:05 PM,68.0,44.6,43,30.28,10.0,NNW,5.8,-,N/A,,Light Drizzle,340,2013-05-24 23:05:00
6:28 PM,68.0,46.4,46,30.28,10.0,North,5.8,-,N/A,,Clear,360,2013-05-24 23:28:00
6:33 PM,68.0,46.4,46,30.28,10.0,NNE,5.8,-,N/A,,Light Drizzle,20,2013-05-24 23:33:00
6:37 PM,68.0,46.4,46,30.28,10.0,ENE,3.5,-,N/A,,Clear,60,2013-05-24 23:37:00
6:39 PM,66.2,44.6,46,30.28,10.0,ENE,3.5,-,N/A,,Light Drizzle,60,2013-05-24 23:39:00
6:58 PM,66.7,47.3,50,30.27,10.0,NNE,4.6,-,0.00,,Light Drizzle,30,2013-05-24 23:58:00
6:59 PM,66.2,48.2,52,30.27,10.0,North,4.6,-,N/A,,Clear,360,2013-05-24 23:59:00
7:58 PM,63.0,46.8,55,30.27,10.0,North,2.3,-,0.00,,Clear,360,2013-05-25 00:58:00
8:11 PM,62.6,46.4,55,30.27,2.5,North,3.5,-,N/A,,Haze,360,2013-05-25 01:11:00
8:15 PM,60.8,46.4,59,30.27,3.0,North,4.6,-,N/A,,Haze,10,2013-05-25 01:15:00
8:30 PM,59.0,48.2,67,30.26,2.5,NNE,3.5,-,N/A,,Haze,20,2013-05-25 01:30:00
8:31 PM,59.0,48.2,67,30.26,2.0,NNE,3.5,-,N/A,,Haze,20,2013-05-25 01:31:00
8:32 PM,60.8,48.2,63,30.26,1.8,NNE,3.5,-,N/A,,Haze,20,2013-05-25 01:32:00
8:34 PM,60.8,50.0,68,30.26,1.2,North,3.5,-,N/A,,Haze,10,2013-05-25 01:34:00
8:35 PM,60.8,50.0,68,30.26,1.0,North,3.5,-,N/A,,Haze,10,2013-05-25 01:35:00
8:36 PM,60.8,50.0,68,30.26,1.0,North,3.5,-,N/A,,Haze,10,2013-05-25 01:36:00
8:37 PM,59.0,50.0,72,30.26,0.8,North,2.3,-,N/A,,Haze,10,2013-05-25 01:37:00
8:48 PM,60.8,50.0,68,30.27,0.8,North,2.3,-,N/A,,Haze,10,2013-05-25 01:48:00
8:49 PM,60.8,50.0,68,30.27,1.0,North,2.3,-,N/A,,Haze,10,2013-05-25 01:49:00
8:50 PM,60.8,50.0,68,30.27,1.0,North,2.3,-,N/A,,Haze,10,2013-05-25 01:50:00
8:52 PM,60.8,50.0,68,30.27,1.2,North,2.3,-,N/A,,Haze,10,2013-05-25 01:52:00
8:53 PM,60.8,51.8,72,30.27,1.5,North,2.3,-,N/A,,Haze,10,2013-05-25 01:53:00
8:55 PM,60.8,51.8,72,30.27,2.0,North,3.5,-,N/A,,Haze,10,2013-05-25 01:55:00
8:58 PM,60.3,51.4,73,30.27,2.5,NNE,3.5,-,N/A,,Haze,20,2013-05-25 01:58:00
9:22 PM,59.0,48.2,67,30.28,1.8,North,4.6,-,N/A,,Haze,10,2013-05-25 02:22:00
9:25 PM,59.0,48.2,67,30.28,1.2,North,4.6,-,N/A,,Haze,10,2013-05-25 02:25:00
9:27 PM,59.0,48.2,67,30.28,1.0,North,4.6,-,N/A,,Haze,10,2013-05-25 02:27:00
9:28 PM,59.0,50.0,72,30.28,1.0,North,4.6,-,N/A,,Haze,10,2013-05-25 02:28:00
9:47 PM,59.0,48.2,67,30.30,1.2,North,3.5,-,N/A,,Haze,360,2013-05-25 02:47:00
9:49 PM,59.0,48.2,67,30.30,1.5,North,2.3,-,N/A,,Haze,350,2013-05-25 02:49:00
9:51 PM,59.0,48.2,67,30.30,2.0,North,2.3,-,N/A,,Haze,350,2013-05-25 02:51:00
9:53 PM,59.0,48.2,67,30.30,3.0,NNW,2.3,-,N/A,,Haze,340,2013-05-25 02:53:00
9:54 PM,59.0,50.0,72,30.30,4.0,North,2.3,-,N/A,,Haze,350,2013-05-25 02:54:00
9:58 PM,58.8,49.1,70,30.30,10.0,North,3.5,-,N/A,,Clear,360,2013-05-25 02:58:00
10:10 PM,59.0,48.2,67,30.31,8.0,North,3.5,-,N/A,,Clear,10,2013-05-25 03:10:00
10:14 PM,57.2,48.2,72,30.30,4.0,North,3.5,-,N/A,,Haze,10,2013-05-25 03:14:00
10:17 PM,57.2,48.2,72,30.30,2.5,North,3.5,-,N/A,,Haze,10,2013-05-25 03:17:00
10:27 PM,57.2,48.2,72,30.30,7.0,North,4.6,-,N/A,,Clear,10,2013-05-25 03:27:00
10:55 PM,57.2,50.0,77,30.32,7.0,North,3.5,-,N/A,,Clear,10,2013-05-25 03:55:00
11:55 PM,53.6,50.0,88,30.32,7.0,NNE,3.5,-,N/A,,Clear,20,2013-05-25 04:55:00